sensor_id;sensor_type;location;lat;lon;timestamp;pressure;altitude;pressure_sealevel;temperature;humidity
66742;BME280;53654;54.152;19.432;2023-07-31T00:00:57;100749.39;;;17.37;94.78
66742;BME280;53654;54.152;19.432;2023-07-31T00:03:27;100748.58;;;17.35;94.98
66742;BME280;53654;54.152;19.432;2023-07-31T00:05:55;100740.70;;;17.33;95.17
66742;BME280;53654;54.152;19.432;2023-07-31T00:08:23;100745.17;;;17.32;95.13
66742;BME280;53654;54.152;19.432;2023-07-31T00:10:52;100744.92;;;17.29;94.73
66742;BME280;53654;54.152;19.432;2023-07-31T00:13:20;100742.70;;;17.27;94.62
66742;BME280;53654;54.152;19.432;2023-07-31T00:15:48;100741.14;;;17.26;94.83
66742;BME280;53654;54.152;19.432;2023-07-31T00:18:16;100741.20;;;17.25;94.62
66742;BME280;53654;54.152;19.432;2023-07-31T00:20:45;100747.92;;;17.24;94.25
66742;BME280;53654;54.152;19.432;2023-07-31T00:23:13;100752.20;;;17.23;94.25
66742;BME280;53654;54.152;19.432;2023-07-31T00:25:41;100752.45;;;17.21;94.25
66742;BME280;53654;54.152;19.432;2023-07-31T00:28:09;100754.74;;;17.21;94.34
66742;BME280;53654;54.152;19.432;2023-07-31T00:30:39;100753.20;;;17.20;94.53
66742;BME280;53654;54.152;19.432;2023-07-31T00:33:07;100751.09;;;17.19;94.27
66742;BME280;53654;54.152;19.432;2023-07-31T00:35:37;100744.04;;;17.19;94.21
66742;BME280;53654;54.152;19.432;2023-07-31T00:38:05;100750.06;;;17.19;94.32
66742;BME280;53654;54.152;19.432;2023-07-31T00:40:37;100749.33;;;17.19;94.26
66742;BME280;53654;54.152;19.432;2023-07-31T00:43:08;100750.34;;;17.20;94.61
66742;BME280;53654;54.152;19.432;2023-07-31T00:45:36;100755.10;;;17.21;94.83
66742;BME280;53654;54.152;19.432;2023-07-31T00:48:05;100762.08;;;17.23;94.92
66742;BME280;53654;54.152;19.432;2023-07-31T00:50:36;100793.91;;;17.24;95.21
66742;BME280;53654;54.152;19.432;2023-07-31T00:53:04;100806.06;;;17.25;95.53
66742;BME280;53654;54.152;19.432;2023-07-31T00:55:33;100798.41;;;17.27;95.91
66742;BME280;53654;54.152;19.432;2023-07-31T00:58:02;100791.09;;;17.30;96.38
66742;BME280;53654;54.152;19.432;2023-07-31T01:00:30;100790.26;;;17.33;96.66
66742;BME280;53654;54.152;19.432;2023-07-31T01:02:58;100783.70;;;17.34;96.96
66742;BME280;53654;54.152;19.432;2023-07-31T01:11:16;100779.50;;;17.38;97.83
66742;BME280;53654;54.152;19.432;2023-07-31T01:13:45;100772.87;;;17.41;97.66
66742;BME280;53654;54.152;19.432;2023-07-31T01:16:14;100774.68;;;17.44;97.83
66742;BME280;53654;54.152;19.432;2023-07-31T01:18:42;100772.60;;;17.49;97.86
66742;BME280;53654;54.152;19.432;2023-07-31T01:24:21;100770.92;;;17.51;97.83
66742;BME280;53654;54.152;19.432;2023-07-31T01:27:10;100777.67;;;17.49;97.88
66742;BME280;53654;54.152;19.432;2023-07-31T01:30:18;100775.55;;;17.49;98.00
66742;BME280;53654;54.152;19.432;2023-07-31T01:32:51;100775.42;;;17.48;98.25
66742;BME280;53654;54.152;19.432;2023-07-31T01:35:21;100765.44;;;17.51;98.40
66742;BME280;53654;54.152;19.432;2023-07-31T01:37:52;100763.42;;;17.53;98.33
66742;BME280;53654;54.152;19.432;2023-07-31T01:40:21;100749.46;;;17.54;97.98
66742;BME280;53654;54.152;19.432;2023-07-31T01:42:50;100740.02;;;17.52;97.35
66742;BME280;53654;54.152;19.432;2023-07-31T01:45:18;100733.39;;;17.50;97.04
66742;BME280;53654;54.152;19.432;2023-07-31T01:47:46;100724.72;;;17.51;96.61
66742;BME280;53654;54.152;19.432;2023-07-31T01:50:14;100718.55;;;17.51;95.93
66742;BME280;53654;54.152;19.432;2023-07-31T01:52:42;100723.55;;;17.49;95.09
66742;BME280;53654;54.152;19.432;2023-07-31T01:55:11;100722.43;;;17.46;95.01
66742;BME280;53654;54.152;19.432;2023-07-31T01:57:39;100723.50;;;17.45;94.79
66742;BME280;53654;54.152;19.432;2023-07-31T02:00:08;100721.71;;;17.46;94.47
66742;BME280;53654;54.152;19.432;2023-07-31T02:02:39;100715.95;;;17.45;93.79
66742;BME280;53654;54.152;19.432;2023-07-31T02:05:07;100714.73;;;17.45;93.49
66742;BME280;53654;54.152;19.432;2023-07-31T02:07:35;100717.63;;;17.43;93.58
66742;BME280;53654;54.152;19.432;2023-07-31T02:10:03;100719.95;;;17.41;93.29
66742;BME280;53654;54.152;19.432;2023-07-31T02:12:32;100718.09;;;17.39;93.14
66742;BME280;53654;54.152;19.432;2023-07-31T02:15:02;100717.27;;;17.38;93.14
66742;BME280;53654;54.152;19.432;2023-07-31T02:17:30;100719.17;;;17.38;93.43
66742;BME280;53654;54.152;19.432;2023-07-31T02:19:58;100713.34;;;17.39;93.69
66742;BME280;53654;54.152;19.432;2023-07-31T02:22:27;100709.21;;;17.36;93.20
66742;BME280;53654;54.152;19.432;2023-07-31T02:24:55;100716.86;;;17.34;93.27
66742;BME280;53654;54.152;19.432;2023-07-31T02:27:24;100729.98;;;17.32;93.67
66742;BME280;53654;54.152;19.432;2023-07-31T02:29:55;100734.21;;;17.32;94.07
66742;BME280;53654;54.152;19.432;2023-07-31T02:32:23;100729.80;;;17.33;94.49
66742;BME280;53654;54.152;19.432;2023-07-31T02:34:51;100731.50;;;17.34;94.67
66742;BME280;53654;54.152;19.432;2023-07-31T02:37:19;100733.46;;;17.33;94.72
66742;BME280;53654;54.152;19.432;2023-07-31T02:39:47;100729.86;;;17.35;95.01
66742;BME280;53654;54.152;19.432;2023-07-31T02:42:15;100731.82;;;17.35;94.72
66742;BME280;53654;54.152;19.432;2023-07-31T02:44:43;100728.17;;;17.34;94.72
66742;BME280;53654;54.152;19.432;2023-07-31T02:47:11;100732.08;;;17.33;94.65
66742;BME280;53654;54.152;19.432;2023-07-31T02:49:39;100740.20;;;17.33;94.78
66742;BME280;53654;54.152;19.432;2023-07-31T02:52:08;100744.42;;;17.33;94.73
66742;BME280;53654;54.152;19.432;2023-07-31T02:54:36;100745.29;;;17.33;94.84
66742;BME280;53654;54.152;19.432;2023-07-31T02:57:04;100739.23;;;17.35;95.36
66742;BME280;53654;54.152;19.432;2023-07-31T02:59:33;100746.25;;;17.36;95.65
66742;BME280;53654;54.152;19.432;2023-07-31T03:02:01;100744.27;;;17.37;95.93
66742;BME280;53654;54.152;19.432;2023-07-31T03:04:29;100753.23;;;17.37;95.77
66742;BME280;53654;54.152;19.432;2023-07-31T03:06:57;100751.15;;;17.37;95.53
66742;BME280;53654;54.152;19.432;2023-07-31T03:09:25;100748.48;;;17.37;95.58
66742;BME280;53654;54.152;19.432;2023-07-31T03:11:53;100759.61;;;17.37;95.45
66742;BME280;53654;54.152;19.432;2023-07-31T03:14:21;100765.60;;;17.37;95.47
66742;BME280;53654;54.152;19.432;2023-07-31T03:16:49;100771.24;;;17.37;95.65
66742;BME280;53654;54.152;19.432;2023-07-31T03:19:17;100773.00;;;17.37;95.84
66742;BME280;53654;54.152;19.432;2023-07-31T03:21:45;100776.36;;;17.37;96.00
66742;BME280;53654;54.152;19.432;2023-07-31T03:24:14;100787.26;;;17.38;96.20
66742;BME280;53654;54.152;19.432;2023-07-31T03:26:42;100789.55;;;17.38;96.37
66742;BME280;53654;54.152;19.432;2023-07-31T03:29:10;100790.80;;;17.38;96.35
66742;BME280;53654;54.152;19.432;2023-07-31T03:31:38;100795.23;;;17.37;96.17
66742;BME280;53654;54.152;19.432;2023-07-31T03:34:06;100795.65;;;17.35;95.92
66742;BME280;53654;54.152;19.432;2023-07-31T03:36:34;100800.11;;;17.34;95.78
66742;BME280;53654;54.152;19.432;2023-07-31T03:39:02;100801.36;;;17.33;95.76
66742;BME280;53654;54.152;19.432;2023-07-31T03:41:31;100802.31;;;17.31;95.61
66742;BME280;53654;54.152;19.432;2023-07-31T03:43:59;100806.96;;;17.29;95.18
66742;BME280;53654;54.152;19.432;2023-07-31T03:46:27;100802.45;;;17.27;94.97
66742;BME280;53654;54.152;19.432;2023-07-31T03:48:55;100807.23;;;17.27;94.95
66742;BME280;53654;54.152;19.432;2023-07-31T03:51:23;100810.05;;;17.27;94.86
66742;BME280;53654;54.152;19.432;2023-07-31T03:53:51;100816.94;;;17.26;94.18
66742;BME280;53654;54.152;19.432;2023-07-31T03:56:20;100818.36;;;17.26;93.66
66742;BME280;53654;54.152;19.432;2023-07-31T03:58:48;100820.13;;;17.26;93.09
66742;BME280;53654;54.152;19.432;2023-07-31T04:01:16;100824.52;;;17.26;92.72
66742;BME280;53654;54.152;19.432;2023-07-31T04:03:44;100818.36;;;17.26;92.12
66742;BME280;53654;54.152;19.432;2023-07-31T04:06:12;100821.48;;;17.28;92.13
66742;BME280;53654;54.152;19.432;2023-07-31T04:08:40;100820.17;;;17.30;92.04
66742;BME280;53654;54.152;19.432;2023-07-31T04:11:08;100819.89;;;17.33;91.81
66742;BME280;53654;54.152;19.432;2023-07-31T04:13:36;100817.26;;;17.37;91.54
66742;BME280;53654;54.152;19.432;2023-07-31T04:16:05;100817.28;;;17.42;91.03
66742;BME280;53654;54.152;19.432;2023-07-31T04:18:33;100817.02;;;17.49;90.64
66742;BME280;53654;54.152;19.432;2023-07-31T04:21:01;100818.23;;;17.75;90.31
66742;BME280;53654;54.152;19.432;2023-07-31T04:23:30;100815.43;;;18.33;89.18
66742;BME280;53654;54.152;19.432;2023-07-31T04:25:58;100816.88;;;19.11;86.40
66742;BME280;53654;54.152;19.432;2023-07-31T04:28:26;100817.09;;;19.94;81.68
66742;BME280;53654;54.152;19.432;2023-07-31T04:30:54;100813.51;;;20.77;77.65
66742;BME280;53654;54.152;19.432;2023-07-31T04:33:22;100819.71;;;21.54;73.37
66742;BME280;53654;54.152;19.432;2023-07-31T04:35:52;100818.03;;;22.27;69.98
66742;BME280;53654;54.152;19.432;2023-07-31T04:38:21;100817.33;;;22.99;66.82
66742;BME280;53654;54.152;19.432;2023-07-31T04:40:49;100819.67;;;23.66;63.77
66742;BME280;53654;54.152;19.432;2023-07-31T04:43:18;100816.89;;;24.27;61.19
66742;BME280;53654;54.152;19.432;2023-07-31T04:45:46;100820.77;;;24.82;59.23
66742;BME280;53654;54.152;19.432;2023-07-31T04:48:15;100825.25;;;25.32;56.89
66742;BME280;53654;54.152;19.432;2023-07-31T04:50:43;100820.06;;;25.74;54.98
66742;BME280;53654;54.152;19.432;2023-07-31T04:53:12;100819.33;;;26.20;53.82
66742;BME280;53654;54.152;19.432;2023-07-31T04:55:40;100822.02;;;26.68;52.38
66742;BME280;53654;54.152;19.432;2023-07-31T04:58:08;100825.41;;;27.06;51.09
66742;BME280;53654;54.152;19.432;2023-07-31T05:00:36;100819.91;;;27.36;50.27
66742;BME280;53654;54.152;19.432;2023-07-31T05:03:04;100820.09;;;27.61;49.23
66742;BME280;53654;54.152;19.432;2023-07-31T05:05:32;100818.51;;;27.79;48.89
66742;BME280;53654;54.152;19.432;2023-07-31T05:08:01;100815.60;;;27.84;48.25
66742;BME280;53654;54.152;19.432;2023-07-31T05:10:29;100821.95;;;27.76;48.22
66742;BME280;53654;54.152;19.432;2023-07-31T05:12:57;100822.02;;;27.43;48.30
66742;BME280;53654;54.152;19.432;2023-07-31T05:15:25;100820.92;;;27.18;48.80
66742;BME280;53654;54.152;19.432;2023-07-31T05:17:53;100821.88;;;26.77;49.38
66742;BME280;53654;54.152;19.432;2023-07-31T05:20:21;100831.42;;;26.47;50.26
66742;BME280;53654;54.152;19.432;2023-07-31T05:22:50;100834.88;;;26.24;50.55
66742;BME280;53654;54.152;19.432;2023-07-31T05:25:19;100837.30;;;26.13;50.63
66742;BME280;53654;54.152;19.432;2023-07-31T05:27:47;100831.09;;;26.08;51.22
66742;BME280;53654;54.152;19.432;2023-07-31T05:30:15;100829.69;;;26.24;51.27
66742;BME280;53654;54.152;19.432;2023-07-31T05:32:44;100836.30;;;26.40;51.24
66742;BME280;53654;54.152;19.432;2023-07-31T05:35:12;100832.89;;;26.40;50.87
66742;BME280;53654;54.152;19.432;2023-07-31T05:37:40;100830.21;;;26.56;50.62
66742;BME280;53654;54.152;19.432;2023-07-31T05:40:08;100828.63;;;26.54;50.31
66742;BME280;53654;54.152;19.432;2023-07-31T05:42:37;100831.66;;;26.47;50.59
66742;BME280;53654;54.152;19.432;2023-07-31T05:45:07;100828.45;;;26.07;50.98
66742;BME280;53654;54.152;19.432;2023-07-31T05:47:35;100835.74;;;25.79;51.31
66742;BME280;53654;54.152;19.432;2023-07-31T05:50:03;100833.02;;;25.41;51.50
66742;BME280;53654;54.152;19.432;2023-07-31T05:52:32;100834.75;;;25.08;53.04
66742;BME280;53654;54.152;19.432;2023-07-31T05:55:00;100832.46;;;24.89;53.95
66742;BME280;53654;54.152;19.432;2023-07-31T05:57:29;100834.62;;;24.62;54.23
66742;BME280;53654;54.152;19.432;2023-07-31T05:59:57;100836.80;;;24.34;54.23
66742;BME280;53654;54.152;19.432;2023-07-31T06:02:25;100832.95;;;24.24;55.62
66742;BME280;53654;54.152;19.432;2023-07-31T06:04:53;100830.39;;;24.31;56.57
66742;BME280;53654;54.152;19.432;2023-07-31T06:07:22;100825.83;;;24.63;56.23
66742;BME280;53654;54.152;19.432;2023-07-31T06:09:50;100828.80;;;25.20;55.10
66742;BME280;53654;54.152;19.432;2023-07-31T06:12:18;100829.94;;;25.58;54.23
66742;BME280;53654;54.152;19.432;2023-07-31T06:14:46;100827.55;;;25.94;53.20
66742;BME280;53654;54.152;19.432;2023-07-31T06:17:14;100826.41;;;26.03;52.23
66742;BME280;53654;54.152;19.432;2023-07-31T06:19:42;100828.88;;;26.28;51.98
66742;BME280;53654;54.152;19.432;2023-07-31T06:22:10;100831.38;;;26.58;50.56
66742;BME280;53654;54.152;19.432;2023-07-31T06:24:38;100832.28;;;26.94;49.67
66742;BME280;53654;54.152;19.432;2023-07-31T06:27:06;100835.30;;;27.17;48.72
66742;BME280;53654;54.152;19.432;2023-07-31T06:29:35;100839.96;;;27.36;48.12
66742;BME280;53654;54.152;19.432;2023-07-31T06:32:04;100840.29;;;27.46;47.20
66742;BME280;53654;54.152;19.432;2023-07-31T06:34:32;100841.05;;;27.50;47.51
66742;BME280;53654;54.152;19.432;2023-07-31T06:37:00;100837.34;;;27.45;47.29
66742;BME280;53654;54.152;19.432;2023-07-31T06:39:29;100840.10;;;27.23;47.33
66742;BME280;53654;54.152;19.432;2023-07-31T06:41:57;100844.88;;;26.95;46.74
66742;BME280;53654;54.152;19.432;2023-07-31T06:44:25;100847.19;;;26.57;47.46
66742;BME280;53654;54.152;19.432;2023-07-31T06:46:54;100846.88;;;26.19;48.71
66742;BME280;53654;54.152;19.432;2023-07-31T06:49:21;100849.80;;;25.88;49.77
66742;BME280;53654;54.152;19.432;2023-07-31T06:51:49;100848.82;;;25.58;50.22
66742;BME280;53654;54.152;19.432;2023-07-31T06:54:17;100854.88;;;25.27;51.60
66742;BME280;53654;54.152;19.432;2023-07-31T06:56:45;100856.45;;;24.94;52.11
66742;BME280;53654;54.152;19.432;2023-07-31T06:59:13;100856.02;;;24.67;52.68
66742;BME280;53654;54.152;19.432;2023-07-31T07:01:41;100856.10;;;24.50;53.34
66742;BME280;53654;54.152;19.432;2023-07-31T07:04:10;100854.46;;;24.28;53.46
66742;BME280;53654;54.152;19.432;2023-07-31T07:06:38;100854.97;;;24.17;54.29
66742;BME280;53654;54.152;19.432;2023-07-31T07:09:07;100852.82;;;24.15;54.60
66742;BME280;53654;54.152;19.432;2023-07-31T07:11:35;100855.48;;;24.12;55.05
66742;BME280;53654;54.152;19.432;2023-07-31T07:14:05;100850.72;;;24.11;53.86
66742;BME280;53654;54.152;19.432;2023-07-31T07:16:33;100856.55;;;24.06;54.62
66742;BME280;53654;54.152;19.432;2023-07-31T07:19:01;100857.60;;;23.95;53.83
66742;BME280;53654;54.152;19.432;2023-07-31T07:21:32;100855.73;;;23.82;54.85
66742;BME280;53654;54.152;19.432;2023-07-31T07:24:00;100855.27;;;23.75;55.34
66742;BME280;53654;54.152;19.432;2023-07-31T07:26:28;100857.46;;;23.69;55.02
66742;BME280;53654;54.152;19.432;2023-07-31T07:28:56;100851.23;;;23.63;55.70
66742;BME280;53654;54.152;19.432;2023-07-31T07:31:28;100847.42;;;23.55;56.05
66742;BME280;53654;54.152;19.432;2023-07-31T07:33:57;100850.24;;;23.50;54.29
66742;BME280;53654;54.152;19.432;2023-07-31T07:36:27;100850.77;;;23.40;54.66
66742;BME280;53654;54.152;19.432;2023-07-31T07:38:55;100849.63;;;23.36;55.10
66742;BME280;53654;54.152;19.432;2023-07-31T07:41:24;100850.17;;;23.30;55.46
66742;BME280;53654;54.152;19.432;2023-07-31T07:43:52;100845.34;;;23.24;54.82
66742;BME280;53654;54.152;19.432;2023-07-31T07:46:20;100843.66;;;23.23;55.16
66742;BME280;53654;54.152;19.432;2023-07-31T07:48:49;100842.74;;;23.17;54.05
66742;BME280;53654;54.152;19.432;2023-07-31T07:51:17;100844.77;;;23.13;55.42
66742;BME280;53654;54.152;19.432;2023-07-31T07:53:46;100838.61;;;23.12;54.92
66742;BME280;53654;54.152;19.432;2023-07-31T07:56:14;100837.44;;;23.08;54.76
66742;BME280;53654;54.152;19.432;2023-07-31T07:58:42;100838.46;;;23.03;54.65
66742;BME280;53654;54.152;19.432;2023-07-31T08:01:10;100836.92;;;23.02;54.08
66742;BME280;53654;54.152;19.432;2023-07-31T08:03:38;100838.53;;;23.04;54.21
66742;BME280;53654;54.152;19.432;2023-07-31T08:06:07;100839.47;;;23.07;53.63
66742;BME280;53654;54.152;19.432;2023-07-31T08:08:37;100836.62;;;23.07;54.14
66742;BME280;53654;54.152;19.432;2023-07-31T08:11:06;100837.36;;;23.09;54.17
66742;BME280;53654;54.152;19.432;2023-07-31T08:13:34;100840.45;;;23.11;53.66
66742;BME280;53654;54.152;19.432;2023-07-31T08:16:06;100840.60;;;23.12;53.49
66742;BME280;53654;54.152;19.432;2023-07-31T08:18:35;100843.42;;;23.12;54.33
66742;BME280;53654;54.152;19.432;2023-07-31T08:21:04;100843.55;;;23.13;54.37
66742;BME280;53654;54.152;19.432;2023-07-31T08:23:32;100838.49;;;23.17;53.84
66742;BME280;53654;54.152;19.432;2023-07-31T08:26:00;100830.55;;;23.22;53.90
66742;BME280;53654;54.152;19.432;2023-07-31T08:28:28;100830.86;;;23.26;53.86
66742;BME280;53654;54.152;19.432;2023-07-31T08:30:56;100824.91;;;23.30;52.80
66742;BME280;53654;54.152;19.432;2023-07-31T08:33:25;100823.05;;;23.34;50.57
66742;BME280;53654;54.152;19.432;2023-07-31T08:35:53;100821.87;;;23.39;50.90
66742;BME280;53654;54.152;19.432;2023-07-31T08:38:21;100827.72;;;23.42;51.41
66742;BME280;53654;54.152;19.432;2023-07-31T08:40:49;100824.20;;;23.47;51.05
66742;BME280;53654;54.152;19.432;2023-07-31T08:43:18;100827.75;;;23.54;51.01
66742;BME280;53654;54.152;19.432;2023-07-31T08:45:48;100821.96;;;23.61;51.29
66742;BME280;53654;54.152;19.432;2023-07-31T08:48:17;100824.61;;;23.67;51.36
66742;BME280;53654;54.152;19.432;2023-07-31T08:50:45;100827.19;;;23.72;50.97
66742;BME280;53654;54.152;19.432;2023-07-31T08:53:13;100825.36;;;23.78;52.04
66742;BME280;53654;54.152;19.432;2023-07-31T08:55:42;100826.76;;;23.84;50.72
66742;BME280;53654;54.152;19.432;2023-07-31T08:58:12;100820.64;;;23.93;49.96
66742;BME280;53654;54.152;19.432;2023-07-31T09:00:42;100820.02;;;24.03;50.42
66742;BME280;53654;54.152;19.432;2023-07-31T09:03:15;100823.89;;;24.04;49.83
66742;BME280;53654;54.152;19.432;2023-07-31T09:05:46;100825.80;;;24.02;49.05
66742;BME280;53654;54.152;19.432;2023-07-31T09:08:18;100823.06;;;24.06;49.06
66742;BME280;53654;54.152;19.432;2023-07-31T09:10:48;100821.11;;;24.20;48.42
66742;BME280;53654;54.152;19.432;2023-07-31T09:13:17;100815.70;;;24.38;47.81
66742;BME280;53654;54.152;19.432;2023-07-31T09:15:46;100815.77;;;24.61;48.06
66742;BME280;53654;54.152;19.432;2023-07-31T09:18:14;100817.52;;;24.83;47.55
66742;BME280;53654;54.152;19.432;2023-07-31T09:21:05;100814.88;;;25.02;45.33
66742;BME280;53654;54.152;19.432;2023-07-31T09:23:41;100815.84;;;25.11;44.89
66742;BME280;53654;54.152;19.432;2023-07-31T09:26:10;100808.98;;;25.20;44.58
66742;BME280;53654;54.152;19.432;2023-07-31T09:28:38;100807.92;;;25.32;44.13
66742;BME280;53654;54.152;19.432;2023-07-31T09:31:07;100798.98;;;25.41;43.46
66742;BME280;53654;54.152;19.432;2023-07-31T09:33:54;100802.27;;;25.47;43.64
66742;BME280;53654;54.152;19.432;2023-07-31T09:36:23;100807.85;;;25.52;43.70
66742;BME280;53654;54.152;19.432;2023-07-31T09:38:52;100802.16;;;25.56;42.00
66742;BME280;53654;54.152;19.432;2023-07-31T09:41:20;100806.89;;;25.58;41.61
66742;BME280;53654;54.152;19.432;2023-07-31T09:43:53;100800.77;;;25.64;42.92
66742;BME280;53654;54.152;19.432;2023-07-31T09:46:22;100795.70;;;25.70;42.42
66742;BME280;53654;54.152;19.432;2023-07-31T09:48:51;100793.42;;;25.79;42.61
66742;BME280;53654;54.152;19.432;2023-07-31T09:51:26;100793.29;;;25.83;42.55
66742;BME280;53654;54.152;19.432;2023-07-31T09:53:58;100789.28;;;25.77;42.57
66742;BME280;53654;54.152;19.432;2023-07-31T09:56:44;100790.29;;;25.68;43.10
66742;BME280;53654;54.152;19.432;2023-07-31T09:59:18;100793.80;;;25.61;42.43
66742;BME280;53654;54.152;19.432;2023-07-31T10:01:53;100789.71;;;25.56;43.43
66742;BME280;53654;54.152;19.432;2023-07-31T10:04:27;100792.11;;;25.50;44.38
66742;BME280;53654;54.152;19.432;2023-07-31T10:06:58;100789.51;;;25.41;43.21
66742;BME280;53654;54.152;19.432;2023-07-31T10:09:31;100785.23;;;25.33;42.99
66742;BME280;53654;54.152;19.432;2023-07-31T10:12:00;100781.38;;;25.27;43.62
66742;BME280;53654;54.152;19.432;2023-07-31T10:14:33;100779.83;;;25.18;43.36
66742;BME280;53654;54.152;19.432;2023-07-31T10:17:02;100776.75;;;25.11;43.97
66742;BME280;53654;54.152;19.432;2023-07-31T10:19:32;100775.40;;;25.07;44.18
66742;BME280;53654;54.152;19.432;2023-07-31T10:22:03;100773.15;;;25.04;44.25
66742;BME280;53654;54.152;19.432;2023-07-31T10:24:32;100770.83;;;25.01;44.15
66742;BME280;53654;54.152;19.432;2023-07-31T10:27:09;100764.09;;;24.90;44.07
66742;BME280;53654;54.152;19.432;2023-07-31T10:29:42;100767.89;;;24.84;44.15
66742;BME280;53654;54.152;19.432;2023-07-31T10:32:11;100764.98;;;24.82;44.79
66742;BME280;53654;54.152;19.432;2023-07-31T10:34:40;100760.91;;;24.81;44.05
66742;BME280;53654;54.152;19.432;2023-07-31T10:37:27;100764.56;;;24.80;44.42
66742;BME280;53654;54.152;19.432;2023-07-31T10:40:00;100760.18;;;24.73;43.76
66742;BME280;53654;54.152;19.432;2023-07-31T10:42:45;100760.11;;;24.69;44.04
66742;BME280;53654;54.152;19.432;2023-07-31T10:45:25;100756.63;;;24.65;43.72
66742;BME280;53654;54.152;19.432;2023-07-31T10:48:06;100758.90;;;24.63;44.23
66742;BME280;53654;54.152;19.432;2023-07-31T10:50:40;100758.48;;;24.59;43.39
66742;BME280;53654;54.152;19.432;2023-07-31T10:53:32;100762.55;;;24.57;43.72
66742;BME280;53654;54.152;19.432;2023-07-31T10:56:04;100759.01;;;24.54;43.85
66742;BME280;53654;54.152;19.432;2023-07-31T10:58:33;100762.70;;;24.52;43.95
66742;BME280;53654;54.152;19.432;2023-07-31T11:01:04;100766.71;;;24.48;43.20
66742;BME280;53654;54.152;19.432;2023-07-31T11:03:50;100762.56;;;24.43;43.62
66742;BME280;53654;54.152;19.432;2023-07-31T11:06:21;100765.52;;;24.31;43.73
66742;BME280;53654;54.152;19.432;2023-07-31T11:08:50;100763.85;;;24.23;44.36
66742;BME280;53654;54.152;19.432;2023-07-31T11:11:20;100764.27;;;24.20;44.99
66742;BME280;53654;54.152;19.432;2023-07-31T11:13:50;100760.81;;;24.18;45.72
66742;BME280;53654;54.152;19.432;2023-07-31T11:16:24;100760.16;;;24.11;45.53
66742;BME280;53654;54.152;19.432;2023-07-31T11:18:53;100765.27;;;24.04;45.63
66742;BME280;53654;54.152;19.432;2023-07-31T11:21:24;100765.73;;;23.94;46.27
66742;BME280;53654;54.152;19.432;2023-07-31T11:23:56;100764.48;;;23.89;46.50
66742;BME280;53654;54.152;19.432;2023-07-31T11:26:29;100768.77;;;23.80;45.99
66742;BME280;53654;54.152;19.432;2023-07-31T11:28:58;100765.20;;;23.75;46.53
66742;BME280;53654;54.152;19.432;2023-07-31T11:31:26;100770.70;;;23.67;47.07
66742;BME280;53654;54.152;19.432;2023-07-31T11:34:07;100773.63;;;23.59;47.77
66742;BME280;53654;54.152;19.432;2023-07-31T11:36:35;100772.11;;;23.52;48.24
66742;BME280;53654;54.152;19.432;2023-07-31T11:39:06;100769.57;;;23.47;48.69
66742;BME280;53654;54.152;19.432;2023-07-31T11:41:35;100770.60;;;23.42;49.40
66742;BME280;53654;54.152;19.432;2023-07-31T11:44:03;100770.17;;;23.37;48.77
66742;BME280;53654;54.152;19.432;2023-07-31T11:46:51;100773.94;;;23.28;48.84
66742;BME280;53654;54.152;19.432;2023-07-31T11:49:21;100771.00;;;23.24;48.81
66742;BME280;53654;54.152;19.432;2023-07-31T11:51:49;100768.11;;;23.19;48.70
66742;BME280;53654;54.152;19.432;2023-07-31T11:54:18;100770.75;;;23.13;49.09
66742;BME280;53654;54.152;19.432;2023-07-31T11:56:46;100770.78;;;23.10;49.39
66742;BME280;53654;54.152;19.432;2023-07-31T11:59:15;100769.90;;;23.07;49.18
66742;BME280;53654;54.152;19.432;2023-07-31T12:01:45;100766.92;;;23.06;49.12
66742;BME280;53654;54.152;19.432;2023-07-31T12:04:14;100766.58;;;23.06;50.21
66742;BME280;53654;54.152;19.432;2023-07-31T12:06:43;100766.26;;;23.02;50.03
66742;BME280;53654;54.152;19.432;2023-07-31T12:09:14;100765.70;;;22.97;49.16
66742;BME280;53654;54.152;19.432;2023-07-31T12:11:46;100766.71;;;22.92;49.44
66742;BME280;53654;54.152;19.432;2023-07-31T12:14:25;100765.02;;;22.87;50.07
66742;BME280;53654;54.152;19.432;2023-07-31T12:16:58;100758.45;;;22.84;50.13
66742;BME280;53654;54.152;19.432;2023-07-31T12:19:27;100757.86;;;22.82;50.78
66742;BME280;53654;54.152;19.432;2023-07-31T12:22:00;100751.91;;;22.80;50.28
66742;BME280;53654;54.152;19.432;2023-07-31T12:24:28;100750.98;;;22.77;49.91
66742;BME280;53654;54.152;19.432;2023-07-31T12:26:57;100752.91;;;22.75;50.24
66742;BME280;53654;54.152;19.432;2023-07-31T12:29:34;100752.00;;;22.72;50.80
66742;BME280;53654;54.152;19.432;2023-07-31T12:32:22;100747.75;;;22.63;50.73
66742;BME280;53654;54.152;19.432;2023-07-31T12:34:51;100747.77;;;22.54;50.81
66742;BME280;53654;54.152;19.432;2023-07-31T12:37:20;100747.80;;;22.50;51.64
66742;BME280;53654;54.152;19.432;2023-07-31T12:39:49;100750.48;;;22.46;51.89
66742;BME280;53654;54.152;19.432;2023-07-31T12:42:17;100748.95;;;22.42;52.15
66742;BME280;53654;54.152;19.432;2023-07-31T12:44:46;100743.81;;;22.39;51.76
66742;BME280;53654;54.152;19.432;2023-07-31T12:47:14;100740.34;;;22.38;51.94
66742;BME280;53654;54.152;19.432;2023-07-31T12:49:43;100738.33;;;22.33;51.78
66742;BME280;53654;54.152;19.432;2023-07-31T12:52:11;100738.75;;;22.28;51.58
66742;BME280;53654;54.152;19.432;2023-07-31T12:54:39;100743.78;;;22.24;51.86
66742;BME280;53654;54.152;19.432;2023-07-31T12:57:07;100746.09;;;22.18;52.87
66742;BME280;53654;54.152;19.432;2023-07-31T12:59:35;100748.59;;;22.05;54.90
66742;BME280;53654;54.152;19.432;2023-07-31T13:02:04;100754.55;;;21.90;57.04